Terminal Aerodrome Forecast
Issued by NWS

Home | Current Version | Previous Version | Text Only | Print | Product List | Glossary On
Versions: 1 2 3 4 5 6 7 8 9 10 11 12 13
000
FTUS45 KVEF 210020 AAA
TAFBIH
TAF AMD
KBIH 210020Z 2100/2124 14014G22KT P6SM VCSH BKN120
     FM210400 16010G16KT P6SM SCT120
     FM210700 VRB06KT P6SM SCT120
     FM211800 17012G20KT P6SM SCT120 OVC250=

USA.gov is the U.S. government's official web portal to all federal, state and local government web resources and services.